地図

経路データ

SID SEASON NUMBER BASIN SUBBASIN NAME ISO_TIME NATURE LAT LON WMO_WIND WMO_PRES WMO_AGENCY TRACK_TYPE DIST2LAND LANDFALL IFLAG USA_AGENCY USA_ATCF_ID USA_LAT USA_LON USA_RECORD USA_STATUS USA_WIND USA_PRES USA_SSHS USA_R34_NE USA_R34_SE USA_R34_SW USA_R34_NW USA_R50_NE USA_R50_SE USA_R50_SW USA_R50_NW USA_R64_NE USA_R64_SE USA_R64_SW USA_R64_NW USA_POCI USA_ROCI USA_RMW USA_EYE TOKYO_LAT TOKYO_LON TOKYO_GRADE TOKYO_WIND TOKYO_PRES TOKYO_R50_DIR TOKYO_R50_LONG TOKYO_R50_SHORT TOKYO_R30_DIR TOKYO_R30_LONG TOKYO_R30_SHORT TOKYO_LAND CMA_LAT CMA_LON CMA_CAT CMA_WIND CMA_PRES HKO_LAT HKO_LON HKO_CAT HKO_WIND HKO_PRES NEWDELHI_LAT NEWDELHI_LON NEWDELHI_GRADE NEWDELHI_WIND NEWDELHI_PRES NEWDELHI_CI NEWDELHI_DP NEWDELHI_POCI REUNION_LAT REUNION_LON REUNION_TYPE REUNION_WIND REUNION_PRES REUNION_TNUM REUNION_CI REUNION_RMW REUNION_R34_NE REUNION_R34_SE REUNION_R34_SW REUNION_R34_NW REUNION_R50_NE REUNION_R50_SE REUNION_R50_SW REUNION_R50_NW REUNION_R64_NE REUNION_R64_SE REUNION_R64_SW REUNION_R64_NW BOM_LAT BOM_LON BOM_TYPE BOM_WIND BOM_PRES BOM_TNUM BOM_CI BOM_RMW BOM_R34_NE BOM_R34_SE BOM_R34_SW BOM_R34_NW BOM_R50_NE BOM_R50_SE BOM_R50_SW BOM_R50_NW BOM_R64_NE BOM_R64_SE BOM_R64_SW BOM_R64_NW BOM_ROCI BOM_POCI BOM_EYE BOM_POS_METHOD BOM_PRES_METHOD NADI_LAT NADI_LON NADI_CAT NADI_WIND NADI_PRES WELLINGTON_LAT WELLINGTON_LON WELLINGTON_WIND WELLINGTON_PRES DS824_LAT DS824_LON DS824_STAGE DS824_WIND DS824_PRES TD9636_LAT TD9636_LON TD9636_STAGE TD9636_WIND TD9636_PRES TD9635_LAT TD9635_LON TD9635_WIND TD9635_PRES TD9635_ROCI NEUMANN_LAT NEUMANN_LON NEUMANN_CLASS NEUMANN_WIND NEUMANN_PRES MLC_LAT MLC_LON MLC_CLASS MLC_WIND MLC_PRES USA_GUST BOM_GUST BOM_GUST_PER REUNION_GUST REUNION_GUST_PER USA_SEAHGT USA_SEARAD_NE USA_SEARAD_SE USA_SEARAD_SW USA_SEARAD_NW STORM_SPEED STORM_DIR
1931226N17115 1931 26 WP MM NOT_NAMED 1931-08-14 10:00:00 NR 16.5000 114.700 main 514 507 __________O___ -1 16.5000 114.700 4 9 21
1931226N17115 1931 26 WP MM NOT_NAMED 1931-08-14 12:00:00 NR 16.7933 114.813 main 507 497 __________P___ -1 16.7933 114.813 4 9 20
1931226N17115 1931 26 WP MM NOT_NAMED 1931-08-14 15:00:00 NR 17.2170 114.979 main 500 486 __________P___ -1 17.2170 114.979 4 9 21
1931226N17115 1931 26 WP MM NOT_NAMED 1931-08-14 18:00:00 NR 17.5989 115.131 main 486 481 __________P___ -1 17.5989 115.131 4 8 21
1931226N17115 1931 26 WP MM NOT_NAMED 1931-08-14 21:00:00 NR 17.9141 115.263 main 491 486 __________P___ -1 17.9141 115.263 4 7 22
1931226N17115 1931 26 WP MM NOT_NAMED 1931-08-14 22:00:00 NR 18.0000 115.300 main 486 481 __________O___ -1 18.0000 115.300 4 5 24
1931226N17115 1931 26 WP MM NOT_NAMED 1931-08-15 00:00:00 NR 18.1404 115.365 main 483 461 __________P___ -1 18.1404 115.365 4 4 26
1931226N17115 1931 26 WP MM NOT_NAMED 1931-08-15 03:00:00 NR 18.2879 115.443 main 461 453 __________P___ -1 18.2879 115.443 4 3 29
1931226N17115 1931 26 WP MM NOT_NAMED 1931-08-15 06:00:00 NR 18.3875 115.509 main 453 446 __________P___ -1 18.3875 115.509 4 2 34
1931226N17115 1931 26 WP MM NOT_NAMED 1931-08-15 09:00:00 NR 18.4706 115.575 main 446 446 __________P___ -1 18.4706 115.575 4 2 38
1931226N17115 1931 26 WP MM NOT_NAMED 1931-08-15 10:00:00 NR 18.5000 115.600 main 446 435 __________O___ -1 18.5000 115.600 4 2 37
1931226N17115 1931 26 WP MM NOT_NAMED 1931-08-15 12:00:00 NR 18.5649 115.645 main 435 428 __________P___ -1 18.5649 115.645 4 2 35
1931226N17115 1931 26 WP MM NOT_NAMED 1931-08-15 15:00:00 NR 18.6618 115.720 main 428 421 __________P___ -1 18.6618 115.720 4 3 37
1931226N17115 1931 26 WP MM NOT_NAMED 1931-08-15 18:00:00 NR 18.7778 115.814 main 421 415 __________P___ -1 18.7778 115.814 4 3 38
1931226N17115 1931 26 WP MM NOT_NAMED 1931-08-15 21:00:00 NR 18.9348 115.946 main 415 407 __________P___ -1 18.9348 115.946 4 4 39
1931226N17115 1931 26 WP MM NOT_NAMED 1931-08-15 22:00:00 NR 19.0000 116.000 main 407 392 __________O___ -1 19.0000 116.000 4 6 44
1931226N17115 1931 26 WP MM NOT_NAMED 1931-08-16 00:00:00 NR 19.1525 116.168 main 392 374 __________P___ -1 19.1525 116.168 4 7 46
1931226N17115 1931 26 WP MM NOT_NAMED 1931-08-16 03:00:00 NR 19.4250 116.460 main 376 348 __________P___ -1 19.4250 116.460 4 8 43
1931226N17115 1931 26 WP MM NOT_NAMED 1931-08-16 06:00:00 NR 19.7388 116.743 main 348 312 __________P___ -1 19.7388 116.743 4 8 35
1931226N17115 1931 26 WP MM NOT_NAMED 1931-08-16 09:00:00 NR 20.0815 116.956 main 315 305 __________P___ -1 20.0815 116.956 4 8 28
1931226N17115 1931 26 WP MM NOT_NAMED 1931-08-16 10:00:00 NR 20.2000 117.000 main 305 273 __________O___ -1 20.2000 117.000 4 8 8
1931226N17115 1931 26 WP MM NOT_NAMED 1931-08-16 12:00:00 NR 20.4616 117.012 main 273 227 __________P___ -1 20.4616 117.012 4 8 355
1931226N17115 1931 26 WP MM NOT_NAMED 1931-08-16 15:00:00 NR 20.8737 116.940 main 227 181 __________P___ -1 20.8737 116.940 4 8 347
1931226N17115 1931 26 WP MM NOT_NAMED 1931-08-16 18:00:00 NR 21.2706 116.803 main 181 143 __________P___ -1 21.2706 116.803 4 8 340
1931226N17115 1931 26 WP MM NOT_NAMED 1931-08-16 21:00:00 NR 21.6082 116.648 main 143 133 __________P___ -1 21.6082 116.648 4 7 336
1931226N17115 1931 26 WP MM NOT_NAMED 1931-08-16 22:00:00 NR 21.7000 116.600 main 133 119 __________O___ -1 21.7000 116.600 4 5 337
1931226N17115 1931 26 WP MM NOT_NAMED 1931-08-17 00:00:00 NR 21.8321 116.544 main 119 98 __________P___ -1 21.8321 116.544 4 3 335
1931226N17115 1931 26 WP MM NOT_NAMED 1931-08-17 03:00:00 NR 21.9609 116.467 main 98 94 __________P___ -1 21.9609 116.467 4 2 326
1931226N17115 1931 26 WP MM NOT_NAMED 1931-08-17 06:00:00 NR 22.0343 116.394 main 94 80 __________P___ -1 22.0343 116.394 4 2 313
1931226N17115 1931 26 WP MM NOT_NAMED 1931-08-17 09:00:00 NR 22.0835 116.324 main 80 80 __________P___ -1 22.0835 116.324 4 2 306
1931226N17115 1931 26 WP MM NOT_NAMED 1931-08-17 10:00:00 NR 22.1000 116.300 main 80 80 __________O___ -1 22.1000 116.300 4 1 313
1931226N17115 1931 26 WP MM NOT_NAMED 1931-08-17 12:00:00 NR 22.1214 116.278 main 80 78 __________P___ -1 22.1214 116.278 4 1 313
1931226N17115 1931 26 WP MM NOT_NAMED 1931-08-17 15:00:00 NR 22.1465 116.246 main 78 67 __________P___ -1 22.1465 116.246 4 1 313
1931226N17115 1931 26 WP MM NOT_NAMED 1931-08-17 18:00:00 NR 22.2022 116.185 main 67 54 __________P___ -1 22.2022 116.185 4 3 317
1931226N17115 1931 26 WP MM NOT_NAMED 1931-08-17 21:00:00 NR 22.3324 116.061 main 54 39 __________P___ -1 22.3324 116.061 4 4 319
1931226N17115 1931 26 WP MM NOT_NAMED 1931-08-17 22:00:00 NR 22.4000 116.000 main 39 11 __________O___ -1 22.4000 116.000 4 7 323
1931226N17115 1931 26 WP MM NOT_NAMED 1931-08-18 00:00:00 NR 22.5977 115.843 main 11 0 __________P___ -1 22.5977 115.843 4 9 324
1931226N17115 1931 26 WP MM NOT_NAMED 1931-08-18 03:00:00 NR 22.9763 115.538 main 0 0 __________P___ -1 22.9763 115.538 4 10 323
1931226N17115 1931 26 WP MM NOT_NAMED 1931-08-18 06:00:00 NR 23.4118 115.166 main 0 0 __________P___ -1 23.4118 115.166 4 11 320
1931226N17115 1931 26 WP MM NOT_NAMED 1931-08-18 09:00:00 NR 23.8573 114.747 main 0 0 __________P___ -1 23.8573 114.747 4 12 319
1931226N17115 1931 26 WP MM NOT_NAMED 1931-08-18 10:00:00 NR 24.0000 114.600 main 0 0 __________O___ -1 24.0000 114.600 4 12 315
1931226N17115 1931 26 WP MM NOT_NAMED 1931-08-18 12:00:00 NR 24.2693 114.299 main 0 0 __________P___ -1 24.2693 114.299 4 11 312
1931226N17115 1931 26 WP MM NOT_NAMED 1931-08-18 15:00:00 NR 24.6382 113.832 main 0 0 __________P___ -1 24.6382 113.832 4 11 309
1931226N17115 1931 26 WP MM NOT_NAMED 1931-08-18 18:00:00 NR 24.9760 113.352 main 0 0 __________P___ -1 24.9760 113.352 4 11 307
1931226N17115 1931 26 WP MM NOT_NAMED 1931-08-18 21:00:00 NR 25.2955 112.864 main 0 0 __________P___ -1 25.2955 112.864 4 11 306
1931226N17115 1931 26 WP MM NOT_NAMED 1931-08-18 22:00:00 NR 25.4000 112.700 main 0 __________O___ -1 25.4000 112.700 7 11 305

デジタル台風データ・検索

IBTrACS Databaseについて

本データベースは、米国NOAAが公開する1842年以降の世界の熱帯低気圧のベストトラックデータアーカイブInternational Best Track Archive for Climate Stewardship (IBTrACS)を、ウェブで閲覧しやすい形式に変換したものです。

最終更新日:2021-12-01